createdAt,value
2022-10-29T00:00:57.330Z,101967.00
2022-10-29T00:03:25.266Z,101959.94
2022-10-29T00:06:04.075Z,101963.47
2022-10-29T00:08:33.522Z,101961.69
2022-10-29T00:11:29.992Z,101943.13
2022-10-29T00:14:00.983Z,101953.72
2022-10-29T00:16:34.871Z,101947.53
2022-10-29T00:19:01.964Z,101951.97
2022-10-29T00:21:29.058Z,101946.66
2022-10-29T00:23:58.105Z,101957.28
2022-10-29T00:26:28.156Z,101957.28
2022-10-29T00:28:57.127Z,101942.28
2022-10-29T00:31:26.635Z,101941.41
2022-10-29T00:33:55.351Z,101944.09
2022-10-29T00:36:28.923Z,101939.69
2022-10-29T00:38:57.197Z,101942.34
2022-10-29T00:41:29.372Z,101940.59
2022-10-29T00:44:14.819Z,101944.13
2022-10-29T00:46:48.053Z,101949.44
2022-10-29T00:49:16.718Z,101946.81
2022-10-29T00:51:45.513Z,101953.88
2022-10-29T00:54:16.311Z,101960.06
2022-10-29T00:56:52.093Z,101964.47
2022-10-29T00:59:19.893Z,101968.03
2022-10-29T01:01:49.434Z,101962.75
2022-10-29T01:04:18.490Z,101959.22
2022-10-29T01:06:47.283Z,101953.88
2022-10-29T01:09:14.694Z,101944.19
2022-10-29T01:12:04.432Z,101943.31
2022-10-29T01:14:52.204Z,101944.16
2022-10-29T01:17:50.750Z,101940.63
2022-10-29T01:21:02.139Z,101935.31
2022-10-29T01:24:08.311Z,101929.13
2022-10-29T01:27:22.403Z,101931.78
2022-10-29T01:30:11.212Z,101924.72
2022-10-29T01:33:07.401Z,101929.13
2022-10-29T01:35:47.644Z,101927.38
2022-10-29T01:38:21.364Z,101925.63
2022-10-29T01:41:03.844Z,101918.53
2022-10-29T01:43:49.858Z,101906.16
2022-10-29T01:46:29.013Z,101911.47
2022-10-29T01:49:04.024Z,101907.94
2022-10-29T01:51:35.641Z,101904.41
2022-10-29T01:54:09.606Z,101892.94
2022-10-29T01:56:36.699Z,101888.50
2022-10-29T01:59:18.276Z,101887.63
2022-10-29T02:02:23.842Z,101900.88
2022-10-29T02:05:27.420Z,101892.94
2022-10-29T02:08:23.822Z,101892.94
2022-10-29T02:11:25.862Z,101893.81
2022-10-29T02:14:41.888Z,101884.09
2022-10-29T02:17:08.894Z,101890.28
2022-10-29T02:19:37.446Z,101877.91
2022-10-29T02:22:04.604Z,101875.25
2022-10-29T02:24:31.807Z,101872.59
2022-10-29T02:26:58.928Z,101860.25
2022-10-29T02:29:25.885Z,101865.56
2022-10-29T02:31:52.878Z,101866.44
2022-10-29T02:34:19.898Z,101862.03
2022-10-29T02:36:47.235Z,101863.78
2022-10-29T02:39:14.250Z,101866.44
2022-10-29T02:41:41.265Z,101869.09
2022-10-29T02:44:08.315Z,101869.09
2022-10-29T02:46:39.797Z,101867.34
2022-10-29T02:49:08.175Z,101855.84
2022-10-29T02:51:35.208Z,101851.41
2022-10-29T02:54:02.283Z,101854.94
2022-10-29T02:56:29.374Z,101853.19
2022-10-29T02:58:56.420Z,101854.06
2022-10-29T03:01:26.010Z,101846.13
2022-10-29T03:03:53.165Z,101848.75
2022-10-29T03:06:21.296Z,101842.59
2022-10-29T03:08:48.496Z,101839.97
2022-10-29T03:11:15.798Z,101843.50
2022-10-29T03:13:43.213Z,101832.88
2022-10-29T03:16:10.606Z,101833.75
2022-10-29T03:18:37.746Z,101838.19
2022-10-29T03:21:04.824Z,101840.84
2022-10-29T03:23:31.859Z,101840.84
2022-10-29T03:25:58.845Z,101839.97
2022-10-29T03:28:28.354Z,101826.69
2022-10-29T03:30:55.609Z,101835.53
2022-10-29T03:33:23.232Z,101831.13
2022-10-29T03:35:50.379Z,101824.06
2022-10-29T03:38:17.388Z,101814.38
2022-10-29T03:40:44.401Z,101813.47
2022-10-29T03:43:11.408Z,101817.88
2022-10-29T03:45:38.444Z,101822.28
2022-10-29T03:48:06.193Z,101816.13
2022-10-29T03:50:33.239Z,101801.97
2022-10-29T03:53:00.311Z,101787.00
2022-10-29T03:55:29.229Z,101771.97
2022-10-29T03:57:56.962Z,101778.19
2022-10-29T04:00:24.382Z,101770.22
2022-10-29T04:02:51.508Z,101778.16
2022-10-29T04:05:18.571Z,101768.47
2022-10-29T04:07:45.886Z,101780.81
2022-10-29T04:10:12.880Z,101780.78
2022-10-29T04:12:39.853Z,101782.59
2022-10-29T04:15:07.611Z,101774.63
2022-10-29T04:17:34.563Z,101778.16
2022-10-29T04:20:01.792Z,101774.63
2022-10-29T04:24:12.092Z,101783.44
2022-10-29T04:28:42.661Z,101779.94
2022-10-29T04:30:50.901Z,101771.97
2022-10-29T04:33:18.108Z,101766.69
2022-10-29T04:35:50.990Z,101775.50
2022-10-29T04:38:18.005Z,101779.03
2022-10-29T04:40:45.020Z,101775.50
2022-10-29T04:43:12.117Z,101771.09
2022-10-29T04:45:39.192Z,101779.03
2022-10-29T04:48:07.217Z,101773.75
2022-10-29T04:50:38.223Z,101779.03
2022-10-29T04:53:07.252Z,101774.63
2022-10-29T04:55:39.593Z,101778.16
2022-10-29T04:58:08.459Z,101771.09
2022-10-29T05:00:35.544Z,101760.50
2022-10-29T05:03:02.622Z,101762.25
2022-10-29T05:05:29.748Z,101751.66
2022-10-29T05:08:01.707Z,101747.25
2022-10-29T05:10:32.679Z,101749.91
2022-10-29T05:13:11.003Z,101755.22
2022-10-29T05:15:39.641Z,101749.00
2022-10-29T05:18:07.498Z,101749.91
2022-10-29T05:20:34.685Z,101749.00
2022-10-29T05:23:08.351Z,101753.47
2022-10-29T05:25:38.195Z,101748.16
2022-10-29T05:28:14.855Z,101751.66
2022-10-29T05:30:43.874Z,101757.84
2022-10-29T05:33:14.321Z,101749.88
2022-10-29T05:35:41.451Z,101740.16
2022-10-29T05:38:10.783Z,101739.28
2022-10-29T05:40:38.547Z,101731.31
2022-10-29T05:43:05.995Z,101718.97
2022-10-29T05:45:33.256Z,101719.84
2022-10-29T05:48:02.554Z,101727.78
2022-10-29T05:50:30.685Z,101732.16
2022-10-29T05:53:00.412Z,101725.09
2022-10-29T05:55:29.102Z,101718.06
2022-10-29T05:58:01.927Z,101715.41
2022-10-29T06:00:32.082Z,101707.47
2022-10-29T06:02:59.324Z,101703.06
2022-10-29T06:05:26.673Z,101726.88
2022-10-29T06:07:59.595Z,101730.41
2022-10-29T06:10:29.409Z,101720.72
2022-10-29T06:12:56.620Z,101726.91
2022-10-29T06:15:23.663Z,101730.44
2022-10-29T06:17:50.847Z,101733.97
2022-10-29T06:20:21.015Z,101721.59
2022-10-29T06:22:55.741Z,101731.28
2022-10-29T06:25:23.429Z,101730.41
2022-10-29T06:28:03.332Z,101744.50
2022-10-29T06:30:33.145Z,101741.88
2022-10-29T06:33:00.992Z,101744.50
2022-10-29T06:35:28.744Z,101735.66
2022-10-29T06:37:56.767Z,101736.56
2022-10-29T06:40:24.198Z,101734.81
2022-10-29T06:43:15.787Z,101739.25
2022-10-29T06:45:42.881Z,101736.59
2022-10-29T06:48:09.893Z,101740.13
2022-10-29T06:50:36.981Z,101748.06
2022-10-29T06:53:07.828Z,101756.88
2022-10-29T06:55:35.425Z,101759.53
2022-10-29T06:58:11.969Z,101768.34
2022-10-29T07:00:39.525Z,101766.56
2022-10-29T07:03:07.381Z,101764.81
2022-10-29T07:05:36.400Z,101768.31
2022-10-29T07:08:03.570Z,101761.25
2022-10-29T07:10:33.239Z,101748.88
2022-10-29T07:13:00.998Z,101739.16
2022-10-29T07:15:30.643Z,101738.28
2022-10-29T07:18:09.535Z,101732.09
2022-10-29T07:20:42.740Z,101733.81
2022-10-29T07:23:11.694Z,101740.88
2022-10-29T07:25:40.236Z,101736.44
2022-10-29T07:28:16.748Z,101726.66
2022-10-29T07:30:45.362Z,101719.53
2022-10-29T07:33:14.087Z,101718.59
2022-10-29T07:35:42.061Z,101718.53
2022-10-29T07:38:11.817Z,101719.34
2022-10-29T07:40:57.098Z,101716.66
2022-10-29T07:43:24.154Z,101704.28
2022-10-29T07:45:52.023Z,101706.91
2022-10-29T07:48:20.569Z,101716.56
2022-10-29T07:50:48.460Z,101723.53
2022-10-29T07:53:16.003Z,101709.31
2022-10-29T07:55:43.088Z,101724.22
2022-10-29T07:58:13.380Z,101720.59
2022-10-29T08:00:41.749Z,101716.06
2022-10-29T08:03:10.505Z,101712.41
2022-10-29T08:05:37.921Z,101716.69
2022-10-29T08:08:05.719Z,101712.16
2022-10-29T08:10:35.011Z,101700.59
2022-10-29T08:13:04.699Z,101702.31
2022-10-29T08:15:33.859Z,101704.94
2022-10-29T08:18:01.945Z,101711.00
2022-10-29T08:20:30.769Z,101713.56
2022-10-29T08:23:00.778Z,101718.03
2022-10-29T08:25:28.319Z,101713.59
2022-10-29T08:28:01.071Z,101712.59
2022-10-29T08:30:28.172Z,101708.00
2022-10-29T08:32:55.765Z,101711.22
2022-10-29T08:35:23.468Z,101711.81
2022-10-29T08:37:50.496Z,101701.84
2022-10-29T08:40:39.402Z,101706.84
2022-10-29T08:43:46.113Z,101711.63
2022-10-29T08:46:38.199Z,101709.44
2022-10-29T08:49:21.268Z,101707.47
2022-10-29T08:52:10.106Z,101707.41
2022-10-29T08:54:41.929Z,101701.25
2022-10-29T08:57:15.592Z,101695.09
2022-10-29T09:00:11.543Z,101702.94
2022-10-29T09:02:40.302Z,101692.16
2022-10-29T09:05:17.480Z,101694.59
2022-10-29T09:08:09.521Z,101692.41
2022-10-29T09:10:55.904Z,101678.66
2022-10-29T09:13:25.577Z,101685.47
2022-10-29T09:16:25.742Z,101690.38
2022-10-29T09:19:45.685Z,101699.00
2022-10-29T09:22:34.689Z,101698.47
2022-10-29T09:25:20.550Z,101699.16
2022-10-29T09:27:53.438Z,101687.38
2022-10-29T09:30:21.868Z,101667.63
2022-10-29T09:33:14.131Z,101674.63
2022-10-29T09:35:49.786Z,101671.78
2022-10-29T09:38:42.476Z,101673.38
2022-10-29T09:41:12.412Z,101674.16
2022-10-29T09:44:02.193Z,101673.75
2022-10-29T09:46:57.395Z,101673.38
2022-10-29T09:50:09.886Z,101671.38
2022-10-29T09:52:40.871Z,101661.41
2022-10-29T09:55:25.155Z,101658.50
2022-10-29T09:57:53.608Z,101655.69
2022-10-29T10:00:30.357Z,101650.13
2022-10-29T10:03:14.964Z,101649.31
2022-10-29T10:06:09.824Z,101638.50
2022-10-29T10:09:00.636Z,101652.59
2022-10-29T10:11:49.684Z,101644.31
2022-10-29T10:14:24.775Z,101639.84
2022-10-29T10:17:00.134Z,101632.81
2022-10-29T10:19:31.004Z,101626.56
2022-10-29T10:22:01.325Z,101630.31
2022-10-29T10:24:38.492Z,101641.19
2022-10-29T10:27:29.795Z,101642.34
2022-10-29T10:30:15.879Z,101635.13
2022-10-29T10:32:42.970Z,101638.78
2022-10-29T10:35:32.100Z,101631.47
2022-10-29T10:38:06.663Z,101638.34
2022-10-29T10:40:33.781Z,101631.94
2022-10-29T10:43:04.222Z,101631.81
2022-10-29T10:45:40.219Z,101632.56
2022-10-29T10:48:15.761Z,101627.03
2022-10-29T10:50:42.873Z,101621.44
2022-10-29T10:53:23.563Z,101616.88
2022-10-29T10:55:59.998Z,101617.75
2022-10-29T10:58:31.299Z,101613.22
2022-10-29T11:01:12.259Z,101614.97
2022-10-29T11:04:21.518Z,101613.03
2022-10-29T11:06:52.209Z,101611.16
2022-10-29T11:09:34.659Z,101611.91
2022-10-29T11:12:12.012Z,101607.25
2022-10-29T11:14:59.727Z,101606.09
2022-10-29T11:17:28.103Z,101597.81
2022-10-29T11:20:03.746Z,101610.03
2022-10-29T11:22:45.811Z,101604.41
2022-10-29T11:25:35.511Z,101604.19
2022-10-29T11:28:43.891Z,101603.00
2022-10-29T11:31:22.256Z,101590.06
2022-10-29T11:34:04.188Z,101596.72
2022-10-29T11:36:40.529Z,101593.53
2022-10-29T11:39:29.010Z,101596.50
2022-10-29T11:41:59.755Z,101593.34
2022-10-29T11:44:29.572Z,101579.66
2022-10-29T11:48:06.482Z,101583.78
2022-10-29T11:50:59.713Z,101580.16
2022-10-29T11:53:53.442Z,101573.13
2022-10-29T11:56:50.340Z,101573.09
2022-10-29T11:59:37.718Z,101571.53
2022-10-29T12:02:48.227Z,101563.63
2022-10-29T12:05:36.519Z,101558.41
2022-10-29T12:08:37.169Z,101560.28
2022-10-29T12:11:22.381Z,101557.53
2022-10-29T12:14:03.069Z,101549.34
2022-10-29T12:16:52.410Z,101550.19
2022-10-29T12:19:54.433Z,101545.56
2022-10-29T12:22:28.691Z,101541.88
2022-10-29T12:25:29.367Z,101542.66
2022-10-29T12:28:23.228Z,101535.34
2022-10-29T12:31:20.786Z,101533.41
2022-10-29T12:34:01.708Z,101534.16
2022-10-29T12:36:44.998Z,101526.94
2022-10-29T12:39:38.029Z,101517.78
2022-10-29T12:42:22.735Z,101509.66
2022-10-29T12:45:00.374Z,101508.66
2022-10-29T12:47:44.554Z,101507.66
2022-10-29T12:50:45.048Z,101513.78
2022-10-29T12:53:29.761Z,101515.50
2022-10-29T12:55:58.635Z,101512.91
2022-10-29T12:58:50.280Z,101506.78
2022-10-29T13:01:38.314Z,101502.53
2022-10-29T13:04:31.909Z,101498.91
2022-10-29T13:09:48.380Z,101491.56
2022-10-29T13:13:02.323Z,101489.59
2022-10-29T13:15:37.259Z,101490.38
2022-10-29T13:18:25.993Z,101483.59
2022-10-29T13:20:54.956Z,101489.44
2022-10-29T13:23:22.001Z,101489.59
2022-10-29T13:25:53.301Z,101481.91
2022-10-29T13:28:20.129Z,101476.94
2022-10-29T13:30:54.065Z,101472.88
2022-10-29T13:33:23.663Z,101475.06
2022-10-29T13:36:17.584Z,101476.28
2022-10-29T13:39:05.505Z,101474.88
2022-10-29T13:41:44.224Z,101470.63
2022-10-29T13:44:23.079Z,101464.44
2022-10-29T13:47:03.141Z,101466.97
2022-10-29T13:49:37.010Z,101470.25
2022-10-29T13:52:24.140Z,101473.50
2022-10-29T13:54:57.253Z,101470.47
2022-10-29T13:57:36.915Z,101463.88
2022-10-29T14:00:12.954Z,101460.94
2022-10-29T14:02:43.022Z,101458.06
2022-10-29T14:05:47.222Z,101457.06
2022-10-29T14:08:28.468Z,101456.34
2022-10-29T14:10:59.496Z,101454.56
2022-10-29T14:13:42.564Z,101455.56
2022-10-29T14:16:12.171Z,101453.97
2022-10-29T14:18:40.889Z,101454.97
2022-10-29T14:21:24.553Z,101457.63
2022-10-29T14:24:15.092Z,101456.84
2022-10-29T14:26:45.390Z,101461.34
2022-10-29T14:29:25.890Z,101457.72
2022-10-29T14:32:19.111Z,101459.53
2022-10-29T14:34:50.762Z,101461.41
2022-10-29T14:37:25.365Z,101463.22
2022-10-29T14:39:58.397Z,101456.22
2022-10-29T14:42:35.704Z,101459.88
2022-10-29T14:45:29.354Z,101451.84
2022-10-29T14:48:08.996Z,101460.97
2022-10-29T14:50:36.433Z,101457.50
2022-10-29T14:53:17.681Z,101455.91
2022-10-29T14:55:48.390Z,101452.47
2022-10-29T14:58:28.850Z,101460.56
2022-10-29T15:01:05.929Z,101450.94
2022-10-29T15:03:35.249Z,101458.34
2022-10-29T15:06:20.099Z,101449.59
2022-10-29T15:09:20.135Z,101444.53
2022-10-29T15:12:08.380Z,101443.97
2022-10-29T15:14:46.962Z,101445.16
2022-10-29T15:17:30.745Z,101439.19
2022-10-29T15:20:05.942Z,101436.88
2022-10-29T15:22:34.802Z,101436.25
2022-10-29T15:25:05.871Z,101427.66
2022-10-29T15:27:36.193Z,101424.44
2022-10-29T15:30:04.802Z,101419.53
2022-10-29T15:32:31.812Z,101411.97
2022-10-29T15:34:59.753Z,101414.97
2022-10-29T15:37:32.768Z,101413.59
2022-10-29T15:40:08.694Z,101401.44
2022-10-29T15:42:37.091Z,101391.91
2022-10-29T15:45:15.680Z,101394.91
2022-10-29T15:48:08.892Z,101390.81
2022-10-29T15:50:42.216Z,101387.59
2022-10-29T15:53:17.453Z,101383.38
2022-10-29T15:55:44.767Z,101380.16
2022-10-29T15:58:16.504Z,101379.53
2022-10-29T16:00:44.095Z,101380.72
2022-10-29T16:03:14.658Z,101377.31
2022-10-29T16:05:43.602Z,101384.63
2022-10-29T16:08:33.747Z,101383.06
2022-10-29T16:11:05.218Z,101381.56
2022-10-29T16:13:33.601Z,101379.16
2022-10-29T16:16:01.176Z,101370.41
2022-10-29T16:18:28.459Z,101363.47
2022-10-29T16:21:01.990Z,101368.91
2022-10-29T16:23:28.960Z,101367.22
2022-10-29T16:25:55.891Z,101367.22
2022-10-29T16:28:22.932Z,101369.91
2022-10-29T16:30:55.579Z,101365.50
2022-10-29T16:33:22.544Z,101364.63
2022-10-29T16:35:49.550Z,101361.25
2022-10-29T16:38:18.548Z,101373.56
2022-10-29T16:40:45.791Z,101367.47
2022-10-29T16:43:12.764Z,101368.34
2022-10-29T16:45:41.298Z,101364.88
2022-10-29T16:48:08.280Z,101361.28
2022-10-29T16:50:35.330Z,101361.28
2022-10-29T16:53:08.002Z,101348.88
2022-10-29T16:55:38.472Z,101354.28
2022-10-29T16:58:17.132Z,101358.75
2022-10-29T17:00:45.486Z,101362.41
2022-10-29T17:03:14.752Z,101350.94
2022-10-29T17:05:45.030Z,101348.41
2022-10-29T17:08:12.965Z,101343.16
2022-10-29T17:10:39.982Z,101343.25
2022-10-29T17:13:09.005Z,101336.22
2022-10-29T17:15:40.971Z,101340.75
2022-10-29T17:18:08.222Z,101342.59
2022-10-29T17:20:35.180Z,101349.78
2022-10-29T17:23:02.203Z,101336.59
2022-10-29T17:25:29.152Z,101337.59
2022-10-29T17:27:56.305Z,101341.22
2022-10-29T17:30:23.485Z,101344.94
2022-10-29T17:32:50.439Z,101344.13
2022-10-29T17:35:17.479Z,101348.66
2022-10-29T17:37:44.416Z,101361.06
2022-10-29T17:40:11.778Z,101368.25
2022-10-29T17:42:38.789Z,101368.25
2022-10-29T17:45:06.601Z,101382.53
2022-10-29T17:47:33.685Z,101384.34
2022-10-29T17:50:00.756Z,101387.00
2022-10-29T17:52:27.765Z,101395.94
2022-10-29T17:54:54.677Z,101397.78
2022-10-29T17:57:21.625Z,101399.56
2022-10-29T17:59:48.594Z,101405.88
2022-10-29T18:02:15.568Z,101405.03
2022-10-29T18:04:42.645Z,101421.91
2022-10-29T18:07:09.599Z,101421.91
2022-10-29T18:09:36.513Z,101420.16
2022-10-29T18:12:03.716Z,101414.00
2022-10-29T18:14:30.748Z,101414.97
2022-10-29T18:16:58.378Z,101415.06
2022-10-29T18:19:25.351Z,101417.81
2022-10-29T18:21:52.375Z,101413.44
2022-10-29T18:24:21.053Z,101413.53
2022-10-29T18:26:51.530Z,101412.72
2022-10-29T18:29:18.694Z,101417.28
2022-10-29T18:31:46.779Z,101420.06
2022-10-29T18:34:15.298Z,101415.72
2022-10-29T18:36:43.209Z,101410.50
2022-10-29T18:39:10.318Z,101407.06
2022-10-29T18:41:37.304Z,101405.38
2022-10-29T18:44:04.615Z,101415.25
2022-10-29T18:46:31.755Z,101401.13
2022-10-29T18:49:00.749Z,101405.63
2022-10-29T18:51:30.687Z,101406.59
2022-10-29T18:53:58.960Z,101419.13
2022-10-29T18:56:29.382Z,101417.44
2022-10-29T18:58:58.110Z,101410.41
2022-10-29T19:01:30.397Z,101406.09
2022-10-29T19:04:00.305Z,101412.38
2022-10-29T19:06:31.558Z,101418.69
2022-10-29T19:09:01.842Z,101419.63
2022-10-29T19:11:29.381Z,101411.69
2022-10-29T19:14:02.781Z,101404.66
2022-10-29T19:16:32.179Z,101418.03
2022-10-29T19:19:06.608Z,101403.88
2022-10-29T19:21:38.604Z,101406.59
2022-10-29T19:24:07.008Z,101408.38
2022-10-29T19:26:36.007Z,101401.34
2022-10-29T19:29:06.653Z,101407.59
2022-10-29T19:31:35.432Z,101404.97
2022-10-29T19:34:06.196Z,101411.25
2022-10-29T19:36:35.321Z,101422.84
2022-10-29T19:39:03.814Z,101426.47
2022-10-29T19:41:31.075Z,101426.50
2022-10-29T19:44:04.755Z,101431.91
2022-10-29T19:46:31.743Z,101429.31
2022-10-29T19:48:59.338Z,101431.19
2022-10-29T19:51:26.952Z,101427.69
2022-10-29T19:53:54.433Z,101426.84
2022-10-29T19:56:22.087Z,101421.59
2022-10-29T19:58:49.739Z,101424.34
2022-10-29T20:01:18.736Z,101429.69
2022-10-29T20:03:47.390Z,101433.28
2022-10-29T20:06:15.893Z,101440.41
2022-10-29T20:08:43.324Z,101434.28
2022-10-29T20:11:10.603Z,101441.41
2022-10-29T20:13:39.751Z,101440.53
2022-10-29T20:16:14.020Z,101437.03
2022-10-29T20:18:41.045Z,101436.25
2022-10-29T20:21:08.367Z,101430.91
2022-10-29T20:23:35.850Z,101430.91
2022-10-29T20:26:02.992Z,101433.63
2022-10-29T20:28:29.986Z,101433.63
2022-10-29T20:31:18.498Z,101435.41
2022-10-29T20:33:59.893Z,101438.97
2022-10-29T20:36:31.308Z,101436.34
2022-10-29T20:38:58.643Z,101436.41
2022-10-29T20:41:26.132Z,101438.22
2022-10-29T20:44:03.781Z,101440.13
2022-10-29T20:46:30.837Z,101447.31
2022-10-29T20:48:57.909Z,101442.06
2022-10-29T20:51:25.543Z,101442.22
2022-10-29T20:53:53.462Z,101451.19
2022-10-29T20:56:23.288Z,101444.16
2022-10-29T20:58:50.433Z,101449.50
2022-10-29T21:01:20.262Z,101455.75
2022-10-29T21:03:50.092Z,101448.66
2022-10-29T21:06:18.104Z,101447.81
2022-10-29T21:08:47.080Z,101458.50
2022-10-29T21:11:15.880Z,101456.75
2022-10-29T21:13:43.374Z,101455.00
2022-10-29T21:16:29.292Z,101459.47
2022-10-29T21:18:59.656Z,101464.84
2022-10-29T21:21:30.298Z,101458.63
2022-10-29T21:23:58.252Z,101465.78
2022-10-29T21:26:27.821Z,101470.22
2022-10-29T21:28:55.742Z,101465.81
2022-10-29T21:31:23.520Z,101464.97
2022-10-29T21:33:54.825Z,101472.13
2022-10-29T21:36:22.717Z,101478.34
2022-10-29T21:38:49.926Z,101478.34
2022-10-29T21:41:18.202Z,101488.13
2022-10-29T21:43:45.270Z,101480.22
2022-10-29T21:46:12.254Z,101477.59
2022-10-29T21:48:39.186Z,101484.69
2022-10-29T21:51:17.232Z,101482.09
2022-10-29T21:53:44.285Z,101482.16
2022-10-29T21:56:14.507Z,101485.72
2022-10-29T21:58:42.050Z,101485.78
2022-10-29T22:01:12.757Z,101477.88
2022-10-29T22:03:42.532Z,101480.59
2022-10-29T22:06:19.098Z,101476.22
2022-10-29T22:08:48.118Z,101470.16
2022-10-29T22:11:15.737Z,101482.63
2022-10-29T22:13:42.774Z,101475.59
2022-10-29T22:16:11.490Z,101481.94
2022-10-29T22:18:39.137Z,101484.69
2022-10-29T22:21:10.153Z,101488.31
2022-10-29T22:23:41.464Z,101492.81
2022-10-29T22:26:08.716Z,101494.69
2022-10-29T22:28:36.006Z,101494.78
2022-10-29T22:31:04.240Z,101493.94
2022-10-29T22:33:32.146Z,101494.91
2022-10-29T22:36:11.047Z,101494.91
2022-10-29T22:38:38.737Z,101494.09
2022-10-29T22:41:15.653Z,101497.69
2022-10-29T22:43:44.070Z,101490.66
2022-10-29T22:46:13.920Z,101496.94
2022-10-29T22:48:41.477Z,101497.84
2022-10-29T22:51:17.106Z,101492.53
2022-10-29T22:53:45.945Z,101497.00
2022-10-29T22:56:31.763Z,101500.50
2022-10-29T22:58:59.605Z,101501.44
2022-10-29T23:01:37.330Z,101497.97
2022-10-29T23:04:07.348Z,101506.81
2022-10-29T23:06:34.725Z,101502.41
2022-10-29T23:09:02.251Z,101505.03
2022-10-29T23:11:34.888Z,101506.81
2022-10-29T23:14:02.934Z,101507.72
2022-10-29T23:16:33.181Z,101508.53
2022-10-29T23:19:03.469Z,101505.94
2022-10-29T23:21:30.953Z,101506.81
2022-10-29T23:23:58.360Z,101509.47
2022-10-29T23:26:26.424Z,101502.41
2022-10-29T23:28:53.695Z,101510.38
2022-10-29T23:31:26.639Z,101512.09
2022-10-29T23:33:56.229Z,101516.59
2022-10-29T23:36:24.929Z,101509.53
2022-10-29T23:39:00.184Z,101505.13
2022-10-29T23:41:29.317Z,101515.78
2022-10-29T23:43:56.879Z,101509.59
2022-10-29T23:46:23.875Z,101513.19
2022-10-29T23:48:50.822Z,101513.19
2022-10-29T23:51:18.184Z,101506.13
2022-10-29T23:53:45.250Z,101502.66
2022-10-29T23:56:12.231Z,101513.31
2022-10-29T23:58:39.295Z,101507.13
